createdAt,value
2022-09-23T00:00:37.164Z,15.43
2022-09-23T00:03:06.191Z,15.40
2022-09-23T00:05:34.146Z,15.41
2022-09-23T00:08:01.925Z,15.41
2022-09-23T00:10:31.262Z,15.40
2022-09-23T00:12:59.053Z,15.43
2022-09-23T00:15:27.086Z,15.38
2022-09-23T00:17:54.731Z,15.41
2022-09-23T00:20:23.813Z,15.40
2022-09-23T00:22:51.407Z,15.38
2022-09-23T00:25:19.186Z,15.36
2022-09-23T00:27:46.786Z,15.43
2022-09-23T00:30:14.561Z,15.42
2022-09-23T00:32:42.185Z,15.43
2022-09-23T00:35:10.605Z,15.44
2022-09-23T00:37:39.637Z,15.44
2022-09-23T00:40:08.562Z,15.45
2022-09-23T00:42:36.165Z,15.45
2022-09-23T00:45:04.250Z,15.48
2022-09-23T00:47:33.499Z,15.49
2022-09-23T00:50:04.536Z,14.89
2022-09-23T00:52:33.244Z,15.48
2022-09-23T00:55:03.371Z,15.50
2022-09-23T00:57:31.228Z,15.49
2022-09-23T00:59:58.861Z,15.46
2022-09-23T01:02:26.647Z,15.50
2022-09-23T01:04:54.254Z,15.48
2022-09-23T01:07:23.013Z,15.30
2022-09-23T01:09:50.635Z,15.49
2022-09-23T01:12:37.299Z,15.47
2022-09-23T01:15:10.224Z,15.45
2022-09-23T01:17:40.746Z,15.47
2022-09-23T01:20:38.470Z,15.48
2022-09-23T01:23:14.965Z,15.47
2022-09-23T01:25:52.206Z,15.47
2022-09-23T01:28:30.107Z,15.45
2022-09-23T01:31:01.401Z,15.45
2022-09-23T01:33:32.103Z,15.46
2022-09-23T01:36:05.276Z,15.45
2022-09-23T01:38:39.859Z,15.44
2022-09-23T01:41:14.459Z,15.28
2022-09-23T01:43:44.035Z,15.42
2022-09-23T01:46:15.592Z,15.40
2022-09-23T01:48:45.849Z,15.39
2022-09-23T01:51:17.162Z,15.35
2022-09-23T01:53:46.324Z,15.25
2022-09-23T01:56:16.133Z,15.31
2022-09-23T01:58:46.323Z,15.30
2022-09-23T02:01:20.433Z,15.07
2022-09-23T02:03:50.008Z,15.25
2022-09-23T02:06:20.195Z,15.24
2022-09-23T02:08:48.743Z,15.16
2022-09-23T02:11:19.670Z,15.22
2022-09-23T02:13:49.866Z,15.18
2022-09-23T02:16:23.530Z,15.18
2022-09-23T02:18:54.991Z,15.17
2022-09-23T02:21:23.037Z,15.17
2022-09-23T02:23:51.541Z,15.17
2022-09-23T02:26:21.616Z,15.01
2022-09-23T02:28:57.330Z,15.11
2022-09-23T02:31:32.392Z,15.16
2022-09-23T02:34:02.519Z,15.16
2022-09-23T02:36:32.198Z,14.93
2022-09-23T02:39:01.189Z,15.15
2022-09-23T02:41:30.047Z,15.14
2022-09-23T02:43:59.749Z,14.99
2022-09-23T02:46:27.637Z,15.12
2022-09-23T02:48:57.805Z,15.09
2022-09-23T02:51:26.248Z,15.09
2022-09-23T02:53:56.244Z,15.07
2022-09-23T02:56:23.947Z,15.06
2022-09-23T02:58:53.460Z,14.85
2022-09-23T03:01:27.121Z,15.03
2022-09-23T03:03:59.677Z,14.98
2022-09-23T03:06:29.802Z,14.81
2022-09-23T03:08:59.433Z,14.98
2022-09-23T03:11:27.115Z,14.98
2022-09-23T03:14:06.605Z,14.74
2022-09-23T03:16:41.016Z,14.95
2022-09-23T03:19:19.756Z,14.95
2022-09-23T03:21:50.216Z,14.93
2022-09-23T03:24:18.014Z,14.94
2022-09-23T03:26:46.853Z,14.88
2022-09-23T03:29:14.432Z,14.92
2022-09-23T03:31:42.504Z,14.91
2022-09-23T03:34:14.482Z,14.91
2022-09-23T03:36:53.928Z,14.93
2022-09-23T03:39:27.820Z,14.93
2022-09-23T03:41:56.768Z,14.75
2022-09-23T03:44:24.633Z,14.94
2022-09-23T03:46:52.470Z,14.81
2022-09-23T03:49:27.293Z,14.89
2022-09-23T03:51:54.897Z,14.85
2022-09-23T03:54:22.555Z,14.84
2022-09-23T03:56:50.111Z,14.81
2022-09-23T03:59:17.869Z,14.75
2022-09-23T04:01:45.982Z,14.74
2022-09-23T04:04:13.919Z,14.79
2022-09-23T04:06:42.909Z,14.76
2022-09-23T04:09:10.708Z,14.74
2022-09-23T04:11:38.296Z,14.71
2022-09-23T04:14:06.202Z,14.69
2022-09-23T04:16:33.876Z,14.61
2022-09-23T04:19:01.773Z,14.65
2022-09-23T04:21:30.142Z,14.63
2022-09-23T04:23:59.222Z,14.61
2022-09-23T04:26:26.795Z,14.58
2022-09-23T04:28:55.244Z,14.54
2022-09-23T04:31:23.614Z,14.55
2022-09-23T04:33:51.506Z,14.48
2022-09-23T04:36:19.065Z,14.33
2022-09-23T04:38:46.926Z,14.48
2022-09-23T04:41:15.951Z,14.44
2022-09-23T04:48:52.721Z,13.75
2022-09-23T04:51:21.230Z,14.12
2022-09-23T04:53:50.087Z,14.34
2022-09-23T04:56:19.738Z,14.33
2022-09-23T04:58:47.695Z,14.01
2022-09-23T05:01:16.257Z,14.30
2022-09-23T05:03:44.276Z,14.15
2022-09-23T05:06:13.673Z,14.26
2022-09-23T05:08:41.718Z,14.25
2022-09-23T05:11:09.338Z,14.22
2022-09-23T05:13:38.469Z,14.22
2022-09-23T05:16:08.114Z,14.15
2022-09-23T05:18:36.392Z,14.22
2022-09-23T05:21:04.316Z,14.18
2022-09-23T05:23:31.920Z,14.16
2022-09-23T05:26:00.427Z,14.21
2022-09-23T05:28:29.871Z,13.95
2022-09-23T05:31:04.216Z,14.22
2022-09-23T05:33:32.486Z,14.11
2022-09-23T05:36:00.243Z,14.26
2022-09-23T05:38:28.625Z,14.27
2022-09-23T05:40:57.520Z,14.29
2022-09-23T05:43:25.143Z,14.29
2022-09-23T05:46:07.294Z,14.38
2022-09-23T05:48:36.377Z,14.42
2022-09-23T05:51:04.169Z,14.47
2022-09-23T05:53:32.192Z,14.53
2022-09-23T05:55:59.887Z,14.57
2022-09-23T05:58:28.104Z,14.67
2022-09-23T06:00:56.691Z,14.71
2022-09-23T06:03:26.242Z,14.77
2022-09-23T06:05:55.194Z,14.90
2022-09-23T06:08:23.941Z,14.97
2022-09-23T06:10:54.306Z,15.13
2022-09-23T06:13:22.370Z,15.30
2022-09-23T06:15:52.151Z,15.52
2022-09-23T06:18:19.763Z,15.80
2022-09-23T06:20:49.069Z,16.01
2022-09-23T06:23:16.620Z,16.20
2022-09-23T06:25:45.537Z,16.44
2022-09-23T06:28:13.173Z,16.70
2022-09-23T06:30:40.905Z,16.94
2022-09-23T06:33:08.468Z,17.20
2022-09-23T06:35:36.263Z,17.38
2022-09-23T06:38:05.519Z,17.51
2022-09-23T06:40:33.307Z,17.63
2022-09-23T06:43:01.404Z,17.90
2022-09-23T06:45:29.410Z,18.13
2022-09-23T06:47:57.723Z,18.27
2022-09-23T06:50:25.656Z,18.65
2022-09-23T06:52:55.998Z,19.05
2022-09-23T06:55:27.212Z,19.43
2022-09-23T06:57:54.840Z,19.91
2022-09-23T07:00:22.589Z,20.35
2022-09-23T07:02:50.203Z,20.84
2022-09-23T07:05:18.072Z,21.43
2022-09-23T07:07:45.713Z,22.04
2022-09-23T07:10:13.440Z,22.61
2022-09-23T07:12:42.465Z,23.14
2022-09-23T07:15:11.427Z,23.62
2022-09-23T07:17:39.016Z,24.18
2022-09-23T07:20:07.566Z,24.70
2022-09-23T07:22:35.889Z,25.26
2022-09-23T07:25:04.370Z,25.75
2022-09-23T07:27:31.951Z,26.26
2022-09-23T07:30:01.175Z,26.60
2022-09-23T07:32:34.504Z,26.86
2022-09-23T07:35:08.315Z,27.34
2022-09-23T07:37:36.045Z,27.67
2022-09-23T07:40:03.729Z,27.80
2022-09-23T07:42:31.566Z,27.78
2022-09-23T07:44:59.134Z,27.80
2022-09-23T07:47:28.106Z,27.66
2022-09-23T07:49:55.885Z,27.49
2022-09-23T07:52:23.477Z,27.18
2022-09-23T07:54:51.553Z,26.93
2022-09-23T07:57:19.171Z,26.67
2022-09-23T07:59:46.920Z,26.49
2022-09-23T08:02:15.424Z,26.34
2022-09-23T08:04:44.680Z,26.21
2022-09-23T08:07:13.285Z,25.92
2022-09-23T08:09:43.272Z,25.96
2022-09-23T08:12:15.755Z,25.83
2022-09-23T08:14:43.921Z,25.72
2022-09-23T08:17:12.415Z,25.61
2022-09-23T08:19:40.187Z,25.56
2022-09-23T08:22:09.514Z,25.53
2022-09-23T08:24:38.371Z,25.46
2022-09-23T08:27:06.277Z,25.50
2022-09-23T08:29:34.545Z,25.61
2022-09-23T08:32:02.619Z,25.84
2022-09-23T08:34:30.400Z,26.36
2022-09-23T08:36:57.992Z,26.98
2022-09-23T08:39:27.108Z,27.28
2022-09-23T08:42:04.258Z,27.83
2022-09-23T08:44:35.805Z,28.14
2022-09-23T08:47:11.796Z,28.26
2022-09-23T08:49:42.036Z,28.38
2022-09-23T08:52:12.987Z,28.58
2022-09-23T08:54:42.105Z,28.61
2022-09-23T08:57:10.791Z,28.57
2022-09-23T08:59:41.489Z,28.57
2022-09-23T09:02:14.074Z,28.63
2022-09-23T09:04:44.281Z,28.75
2022-09-23T09:10:06.075Z,29.74
2022-09-23T09:12:36.169Z,30.21
2022-09-23T09:15:06.168Z,30.59
2022-09-23T09:17:38.468Z,30.57
2022-09-23T09:20:15.004Z,30.25
2022-09-23T09:22:46.271Z,29.86
2022-09-23T09:25:20.526Z,29.52
2022-09-23T09:27:48.680Z,29.29
2022-09-23T09:30:16.848Z,28.99
2022-09-23T09:32:48.413Z,28.73
2022-09-23T09:35:26.127Z,28.44
2022-09-23T09:37:53.849Z,28.26
2022-09-23T09:40:22.928Z,28.07
2022-09-23T09:42:51.380Z,28.10
2022-09-23T09:45:25.057Z,27.94
2022-09-23T09:47:57.295Z,28.04
2022-09-23T09:50:43.644Z,27.91
2022-09-23T09:53:25.540Z,27.86
2022-09-23T09:56:04.895Z,28.11
2022-09-23T09:58:43.031Z,28.02
2022-09-23T10:01:22.671Z,27.94
2022-09-23T10:03:53.058Z,27.85
2022-09-23T10:06:25.956Z,27.65
2022-09-23T10:09:13.577Z,27.58
2022-09-23T10:12:04.535Z,27.61
2022-09-23T10:14:32.197Z,27.77
2022-09-23T10:17:05.590Z,27.69
2022-09-23T10:19:34.010Z,28.27
2022-09-23T10:22:04.796Z,28.41
2022-09-23T10:24:37.307Z,29.41
2022-09-23T10:27:11.807Z,30.09
2022-09-23T10:29:40.253Z,31.03
2022-09-23T10:32:21.810Z,32.07
2022-09-23T10:34:51.525Z,32.41
2022-09-23T10:37:20.706Z,33.11
2022-09-23T10:40:02.443Z,33.72
2022-09-23T10:42:53.790Z,34.07
2022-09-23T10:45:43.238Z,34.12
2022-09-23T10:48:14.846Z,34.15
2022-09-23T10:50:44.857Z,34.05
2022-09-23T10:53:16.645Z,33.85
2022-09-23T10:55:51.920Z,33.97
2022-09-23T10:58:50.480Z,34.12
2022-09-23T11:01:26.640Z,34.02
2022-09-23T11:04:39.016Z,34.03
2022-09-23T11:07:14.212Z,34.12
2022-09-23T11:09:53.069Z,34.76
2022-09-23T11:12:29.742Z,35.35
2022-09-23T11:15:07.605Z,36.34
2022-09-23T11:18:11.639Z,37.48
2022-09-23T11:20:49.995Z,38.37
2022-09-23T11:23:37.647Z,39.25
2022-09-23T11:26:10.543Z,40.06
2022-09-23T11:29:02.353Z,41.05
2022-09-23T11:31:37.286Z,41.59
2022-09-23T11:34:26.371Z,42.07
2022-09-23T11:36:58.016Z,43.06
2022-09-23T11:39:28.437Z,44.11
2022-09-23T11:41:57.205Z,44.54
2022-09-23T11:44:27.661Z,45.02
2022-09-23T11:46:57.118Z,45.32
2022-09-23T11:49:29.027Z,45.06
2022-09-23T11:52:02.973Z,43.96
2022-09-23T11:54:32.372Z,42.68
2022-09-23T11:57:01.338Z,41.51
2022-09-23T11:59:39.962Z,40.63
2022-09-23T12:02:21.807Z,39.90
2022-09-23T12:04:58.541Z,38.90
2022-09-23T12:07:30.567Z,37.48
2022-09-23T12:10:00.169Z,36.13
2022-09-23T12:12:31.338Z,35.17
2022-09-23T12:15:01.481Z,33.96
2022-09-23T12:17:47.247Z,33.08
2022-09-23T12:20:28.117Z,32.16
2022-09-23T12:23:03.993Z,31.62
2022-09-23T12:25:36.022Z,31.29
2022-09-23T12:28:04.973Z,30.89
2022-09-23T12:30:33.936Z,30.74
2022-09-23T12:33:08.905Z,30.56
2022-09-23T12:35:39.959Z,30.07
2022-09-23T12:38:14.821Z,29.93
2022-09-23T12:40:44.432Z,29.57
2022-09-23T12:43:19.097Z,29.21
2022-09-23T12:45:48.086Z,29.01
2022-09-23T12:48:45.506Z,28.85
2022-09-23T12:51:20.224Z,28.49
2022-09-23T12:54:24.369Z,28.64
2022-09-23T12:57:02.348Z,28.53
2022-09-23T12:59:31.709Z,28.31
2022-09-23T13:01:59.571Z,28.28
2022-09-23T13:05:03.645Z,28.31
2022-09-23T13:07:33.936Z,28.17
2022-09-23T13:10:08.918Z,28.06
2022-09-23T13:12:39.283Z,27.98
2022-09-23T13:15:15.814Z,27.87
2022-09-23T13:17:43.482Z,27.57
2022-09-23T13:20:36.452Z,27.59
2022-09-23T13:23:19.180Z,26.56
2022-09-23T13:25:48.457Z,26.75
2022-09-23T13:28:33.269Z,25.75
2022-09-23T13:31:05.256Z,26.34
2022-09-23T13:33:38.309Z,25.24
2022-09-23T13:36:12.062Z,25.09
2022-09-23T13:38:39.878Z,25.43
2022-09-23T13:41:13.680Z,26.48
2022-09-23T13:43:43.574Z,24.25
2022-09-23T13:46:15.194Z,26.45
2022-09-23T13:48:45.410Z,26.13
2022-09-23T13:51:18.901Z,24.15
2022-09-23T13:53:51.398Z,25.45
2022-09-23T13:56:20.869Z,25.29
2022-09-23T13:58:48.895Z,24.58
2022-09-23T14:01:23.032Z,26.12
2022-09-23T14:03:51.481Z,25.50
2022-09-23T14:06:19.386Z,23.77
2022-09-23T14:08:48.350Z,25.92
2022-09-23T14:11:17.111Z,25.62
2022-09-23T14:13:47.160Z,23.50
2022-09-23T14:16:15.896Z,24.01
2022-09-23T14:18:45.576Z,23.63
2022-09-23T14:21:34.835Z,23.90
2022-09-23T14:24:16.595Z,23.89
2022-09-23T14:26:45.676Z,24.80
2022-09-23T14:29:17.570Z,25.37
2022-09-23T14:31:56.885Z,24.72
2022-09-23T14:34:41.875Z,24.78
2022-09-23T14:37:44.991Z,23.80
2022-09-23T14:40:15.268Z,24.27
2022-09-23T14:42:45.276Z,24.12
2022-09-23T14:45:17.980Z,25.24
2022-09-23T14:47:48.303Z,23.90
2022-09-23T14:50:35.235Z,24.11
2022-09-23T14:53:03.128Z,24.46
2022-09-23T14:55:31.373Z,23.98
2022-09-23T14:58:03.497Z,23.92
2022-09-23T15:00:32.751Z,23.33
2022-09-23T15:03:01.485Z,23.91
2022-09-23T15:05:33.595Z,23.10
2022-09-23T15:08:02.272Z,21.50
2022-09-23T15:10:33.427Z,24.12
2022-09-23T15:13:05.692Z,24.68
2022-09-23T15:15:35.777Z,23.97
2022-09-23T15:18:07.686Z,22.95
2022-09-23T15:20:36.475Z,22.99
2022-09-23T15:23:04.375Z,22.85
2022-09-23T15:25:33.603Z,24.49
2022-09-23T15:28:04.605Z,23.76
2022-09-23T15:30:35.616Z,22.75
2022-09-23T15:33:09.756Z,23.30
2022-09-23T15:35:40.691Z,23.67
2022-09-23T15:38:10.422Z,22.58
2022-09-23T15:40:39.486Z,22.50
2022-09-23T15:43:20.509Z,22.05
2022-09-23T15:45:52.767Z,23.68
2022-09-23T15:48:22.691Z,23.55
2022-09-23T15:50:50.840Z,21.79
2022-09-23T15:53:19.874Z,22.88
2022-09-23T15:55:47.629Z,23.88
2022-09-23T15:58:15.326Z,22.87
2022-09-23T16:00:43.070Z,23.18
2022-09-23T16:03:13.771Z,21.98
2022-09-23T16:05:41.591Z,23.68
2022-09-23T16:08:10.481Z,22.09
2022-09-23T16:10:38.375Z,22.36
2022-09-23T16:13:07.722Z,23.34
2022-09-23T16:15:35.424Z,23.50
2022-09-23T16:18:03.106Z,23.43
2022-09-23T16:20:32.128Z,21.71
2022-09-23T16:23:00.703Z,22.34
2022-09-23T16:25:30.070Z,22.04
2022-09-23T16:27:58.104Z,22.20
2022-09-23T16:30:26.078Z,22.22
2022-09-23T16:32:53.761Z,21.58
2022-09-23T16:35:21.688Z,21.95
2022-09-23T16:37:51.129Z,21.35
2022-09-23T16:40:20.782Z,21.69
2022-09-23T16:42:48.615Z,22.93
2022-09-23T16:45:17.880Z,22.91
2022-09-23T16:47:46.211Z,22.49
2022-09-23T16:50:14.163Z,21.97
2022-09-23T16:52:42.026Z,20.74
2022-09-23T16:55:11.828Z,22.26
2022-09-23T16:57:39.634Z,21.72
2022-09-23T17:00:26.752Z,22.71
2022-09-23T17:03:11.298Z,21.66
2022-09-23T17:05:39.064Z,21.35
2022-09-23T17:08:07.731Z,20.58
2022-09-23T17:10:37.094Z,21.64
2022-09-23T17:13:04.838Z,21.57
2022-09-23T17:15:32.568Z,19.60
2022-09-23T17:18:00.203Z,22.44
2022-09-23T17:20:27.864Z,21.99
2022-09-23T17:22:56.280Z,21.49
2022-09-23T17:25:24.027Z,21.14
2022-09-23T17:27:53.601Z,20.50
2022-09-23T17:30:21.592Z,20.72
2022-09-23T17:32:49.320Z,21.08
2022-09-23T17:35:17.421Z,20.05
2022-09-23T17:37:46.748Z,19.29
2022-09-23T17:40:14.653Z,21.50
2022-09-23T17:42:42.495Z,22.11
2022-09-23T17:45:12.412Z,20.79
2022-09-23T17:47:41.777Z,20.97
2022-09-23T17:50:10.230Z,20.45
2022-09-23T17:52:37.889Z,21.93
2022-09-23T17:55:06.678Z,21.25
2022-09-23T17:57:37.411Z,20.17
2022-09-23T18:00:06.109Z,21.00
2022-09-23T18:02:35.304Z,21.75
2022-09-23T18:05:03.081Z,21.72
2022-09-23T18:07:30.789Z,21.68
2022-09-23T18:09:58.598Z,20.98
2022-09-23T18:12:26.528Z,19.83
2022-09-23T18:14:54.335Z,20.50
2022-09-23T18:17:22.142Z,19.93
2022-09-23T18:19:51.492Z,19.46
2022-09-23T18:22:19.449Z,19.50
2022-09-23T18:24:47.507Z,19.82
2022-09-23T18:27:22.229Z,20.13
2022-09-23T18:29:50.562Z,18.51
2022-09-23T18:32:18.822Z,20.53
2022-09-23T18:34:47.172Z,18.42
2022-09-23T18:37:16.824Z,21.00
2022-09-23T18:39:44.988Z,20.93
2022-09-23T18:42:13.828Z,20.89
2022-09-23T18:44:41.733Z,17.96
2022-09-23T18:47:29.667Z,19.83
2022-09-23T18:50:14.978Z,20.00
2022-09-23T18:52:44.161Z,18.56
2022-09-23T18:55:12.692Z,19.35
2022-09-23T18:57:41.161Z,17.74
2022-09-23T19:00:10.405Z,18.85
2022-09-23T19:02:38.159Z,18.93
2022-09-23T19:05:06.890Z,19.20
2022-09-23T19:07:34.711Z,18.20
2022-09-23T19:10:04.336Z,18.07
2022-09-23T19:12:32.197Z,19.80
2022-09-23T19:15:00.229Z,17.60
2022-09-23T19:17:28.155Z,18.84
2022-09-23T19:19:56.150Z,19.55
2022-09-23T19:22:23.932Z,19.25
2022-09-23T19:27:27.260Z,20.30
2022-09-23T19:29:54.951Z,20.25
2022-09-23T19:32:24.372Z,20.18
2022-09-23T19:34:51.954Z,20.19
2022-09-23T19:37:20.937Z,20.16
2022-09-23T19:39:50.022Z,19.89
2022-09-23T19:42:18.304Z,20.11
2022-09-23T19:44:50.196Z,20.07
2022-09-23T19:47:17.993Z,20.07
2022-09-23T19:49:45.665Z,20.02
2022-09-23T19:52:13.255Z,19.98
2022-09-23T19:54:40.857Z,19.97
2022-09-23T19:57:09.445Z,19.91
2022-09-23T19:59:38.459Z,19.92
2022-09-23T20:02:07.475Z,19.88
2022-09-23T20:04:35.378Z,19.83
2022-09-23T20:07:04.140Z,19.82
2022-09-23T20:09:31.900Z,19.82
2022-09-23T20:12:02.411Z,19.81
2022-09-23T20:14:31.267Z,19.77
2022-09-23T20:16:59.989Z,19.77
2022-09-23T20:19:29.078Z,19.75
2022-09-23T20:22:10.659Z,19.69
2022-09-23T20:24:38.245Z,19.70
2022-09-23T20:27:10.786Z,19.74
2022-09-23T20:29:38.498Z,19.69
2022-09-23T20:32:06.081Z,19.69
2022-09-23T20:34:35.093Z,19.66
2022-09-23T20:37:04.226Z,19.63
2022-09-23T20:39:32.011Z,19.64
2022-09-23T20:42:02.580Z,19.61
2022-09-23T20:44:30.191Z,19.61
2022-09-23T20:46:57.780Z,19.52
2022-09-23T20:49:25.458Z,19.56
2022-09-23T20:51:54.368Z,19.55
2022-09-23T20:54:21.988Z,19.54
2022-09-23T20:56:49.563Z,19.49
2022-09-23T20:59:17.881Z,19.52
2022-09-23T21:01:46.482Z,19.52
2022-09-23T21:04:14.177Z,19.50
2022-09-23T21:06:41.751Z,19.48
2022-09-23T21:09:10.736Z,19.46
2022-09-23T21:11:38.289Z,19.47
2022-09-23T21:14:06.146Z,19.45
2022-09-23T21:16:33.969Z,19.42
2022-09-23T21:19:02.876Z,19.45
2022-09-23T21:21:30.532Z,19.40
2022-09-23T21:24:17.316Z,19.43
2022-09-23T21:26:50.193Z,19.42
2022-09-23T21:29:17.963Z,19.42
2022-09-23T21:31:46.391Z,19.42
2022-09-23T21:34:14.514Z,19.42
2022-09-23T21:36:43.970Z,19.43
2022-09-23T21:39:12.010Z,19.43
2022-09-23T21:41:39.877Z,19.42
2022-09-23T21:44:09.056Z,19.42
2022-09-23T21:46:36.849Z,19.41
2022-09-23T21:49:04.956Z,19.39
2022-09-23T21:51:34.098Z,19.36
2022-09-23T21:54:02.206Z,19.33
2022-09-23T21:56:31.245Z,19.31
2022-09-23T21:58:59.643Z,19.27
2022-09-23T22:01:29.775Z,19.25
2022-09-23T22:03:58.371Z,19.23
2022-09-23T22:06:27.115Z,19.21
2022-09-23T22:08:55.769Z,19.18
2022-09-23T22:11:41.723Z,19.13
2022-09-23T22:14:11.612Z,18.70
2022-09-23T22:16:41.631Z,19.08
2022-09-23T22:19:09.360Z,19.06
2022-09-23T22:21:38.755Z,19.04
2022-09-23T22:24:07.714Z,18.99
2022-09-23T22:26:36.010Z,18.75
2022-09-23T22:29:28.067Z,18.99
2022-09-23T22:32:14.708Z,18.97
2022-09-23T22:34:50.415Z,18.96
2022-09-23T22:37:20.240Z,18.94
2022-09-23T22:39:48.022Z,18.94
2022-09-23T22:42:15.871Z,18.96
2022-09-23T22:44:43.504Z,18.96
2022-09-23T22:47:12.473Z,18.95
2022-09-23T22:49:40.728Z,18.98
2022-09-23T22:52:08.363Z,19.00
2022-09-23T22:54:36.330Z,18.97
2022-09-23T22:57:05.053Z,19.03
2022-09-23T22:59:32.669Z,19.05
2022-09-23T23:02:02.300Z,18.62
2022-09-23T23:04:31.694Z,19.06
2022-09-23T23:06:59.496Z,19.09
2022-09-23T23:09:27.226Z,19.09
2022-09-23T23:11:54.867Z,19.08
2022-09-23T23:14:22.665Z,19.08
2022-09-23T23:16:50.645Z,19.06
2022-09-23T23:19:19.059Z,19.06
2022-09-23T23:21:48.140Z,19.04
2022-09-23T23:24:16.456Z,19.03
2022-09-23T23:26:44.158Z,19.01
2022-09-23T23:29:12.243Z,19.00
2022-09-23T23:31:40.058Z,18.99
2022-09-23T23:34:09.145Z,18.97
2022-09-23T23:36:36.794Z,18.98
2022-09-23T23:39:05.754Z,18.94
2022-09-23T23:41:33.507Z,18.96
2022-09-23T23:44:01.653Z,18.96
2022-09-23T23:46:30.696Z,18.94
2022-09-23T23:48:58.452Z,18.94
2022-09-23T23:51:26.313Z,18.92
2022-09-23T23:53:55.133Z,18.90
2022-09-23T23:56:24.647Z,18.89
2022-09-23T23:58:54.585Z,18.89
